createdAt,value
2022-08-05T00:00:52.235Z,24.40
2022-08-05T00:01:54.435Z,24.35
2022-08-05T00:02:56.652Z,24.43
2022-08-05T00:03:58.737Z,24.32
2022-08-05T00:05:00.848Z,24.25
2022-08-05T00:06:27.824Z,24.38
2022-08-05T00:07:59.663Z,24.29
2022-08-05T00:08:52.988Z,24.30
2022-08-05T00:09:54.992Z,24.35
2022-08-05T00:11:00.797Z,24.42
2022-08-05T00:12:04.680Z,24.32
2022-08-05T00:13:07.014Z,24.38
2022-08-05T00:14:21.031Z,24.25
2022-08-05T00:15:55.668Z,24.27
2022-08-05T00:16:53.646Z,24.37
2022-08-05T00:17:56.010Z,24.40
2022-08-05T00:18:58.071Z,24.38
2022-08-05T00:20:02.634Z,24.35
2022-08-05T00:21:08.267Z,24.23
2022-08-05T00:22:11.326Z,24.18
2022-08-05T00:23:15.569Z,24.19
2022-08-05T00:24:24.696Z,24.16
2022-08-05T00:25:45.640Z,24.24
2022-08-05T00:26:51.894Z,24.28
2022-08-05T00:27:55.312Z,24.30
2022-08-05T00:28:57.351Z,24.32
2022-08-05T00:30:00.407Z,24.23
2022-08-05T00:31:07.650Z,24.37
2022-08-05T00:32:15.318Z,24.35
2022-08-05T00:34:53.627Z,24.22
2022-08-05T00:34:55.635Z,24.22
2022-08-05T00:36:15.186Z,24.23
2022-08-05T00:37:20.356Z,24.25
2022-08-05T00:38:28.792Z,24.23
2022-08-05T00:39:36.944Z,24.11
2022-08-05T00:40:53.153Z,24.09
2022-08-05T00:41:55.897Z,24.06
2022-08-05T00:43:00.396Z,24.03
2022-08-05T00:44:03.041Z,24.03
2022-08-05T00:45:08.668Z,24.14
2022-08-05T00:46:13.640Z,24.18
2022-08-05T00:47:16.564Z,24.00
2022-08-05T00:48:27.759Z,24.04
2022-08-05T00:49:44.711Z,24.04
2022-08-05T00:50:54.076Z,24.09
2022-08-05T00:51:56.070Z,24.03
2022-08-05T00:52:58.143Z,24.08
2022-08-05T00:54:02.523Z,24.10
2022-08-05T00:55:05.688Z,24.01
2022-08-05T00:56:08.264Z,24.00
2022-08-05T00:57:10.467Z,23.96
2022-08-05T00:58:13.927Z,24.00
2022-08-05T00:59:16.228Z,24.07
2022-08-05T01:00:19.976Z,23.89
2022-08-05T01:01:42.150Z,23.91
2022-08-05T01:02:47.367Z,23.89
2022-08-05T01:03:53.021Z,23.92
2022-08-05T01:04:55.905Z,23.85
2022-08-05T01:05:58.313Z,23.80
2022-08-05T01:07:00.577Z,23.87
2022-08-05T01:08:40.111Z,23.90
2022-08-05T01:09:30.358Z,23.95
2022-08-05T01:10:40.944Z,23.94
2022-08-05T01:12:01.843Z,23.88
2022-08-05T01:13:19.393Z,23.85
2022-08-05T01:14:40.953Z,23.69
2022-08-05T01:15:54.695Z,23.61
2022-08-05T01:16:59.316Z,23.63
2022-08-05T01:18:05.601Z,23.61
2022-08-05T01:19:18.552Z,23.53
2022-08-05T01:20:46.251Z,23.49
2022-08-05T01:22:10.832Z,23.46
2022-08-05T01:23:23.720Z,23.46
2022-08-05T01:24:36.326Z,23.56
2022-08-05T01:25:52.351Z,23.67
2022-08-05T01:27:17.528Z,23.62
2022-08-05T01:28:36.968Z,23.62
2022-08-05T01:29:47.297Z,23.67
2022-08-05T01:30:59.661Z,23.70
2022-08-05T01:32:12.543Z,23.72
2022-08-05T01:33:25.260Z,23.75
2022-08-05T01:34:48.764Z,23.75
2022-08-05T01:35:53.402Z,23.61
2022-08-05T01:37:02.975Z,23.53
2022-08-05T01:38:06.956Z,23.49
2022-08-05T01:39:11.057Z,23.50
2022-08-05T01:40:17.927Z,23.52
2022-08-05T01:41:25.495Z,23.51
2022-08-05T01:42:31.768Z,23.66
2022-08-05T01:43:34.769Z,23.65
2022-08-05T01:44:39.683Z,23.66
2022-08-05T01:45:43.290Z,23.66
2022-08-05T01:46:46.935Z,23.59
2022-08-05T01:47:54.471Z,23.75
2022-08-05T01:49:00.702Z,23.62
2022-08-05T01:50:28.581Z,23.67
2022-08-05T01:51:33.905Z,23.60
2022-08-05T01:52:43.234Z,23.48
2022-08-05T01:53:57.252Z,23.41
2022-08-05T01:55:06.954Z,23.35
2022-08-05T01:56:13.653Z,23.41
2022-08-05T01:58:12.772Z,23.29
2022-08-05T01:59:08.452Z,23.26
2022-08-05T02:00:12.527Z,23.33
2022-08-05T02:01:16.179Z,23.32
2022-08-05T02:02:29.773Z,23.25
2022-08-05T02:03:36.699Z,23.22
2022-08-05T02:04:42.758Z,23.34
2022-08-05T02:05:49.902Z,23.25
2022-08-05T02:06:57.830Z,23.38
2022-08-05T02:08:01.617Z,23.38
2022-08-05T02:09:05.183Z,23.31
2022-08-05T02:10:08.483Z,23.41
2022-08-05T02:11:16.096Z,23.45
2022-08-05T02:13:15.862Z,23.38
2022-08-05T02:14:29.138Z,23.30
2022-08-05T02:15:44.032Z,23.46
2022-08-05T02:16:54.817Z,23.51
2022-08-05T02:18:31.563Z,23.56
2022-08-05T02:19:41.396Z,23.67
2022-08-05T02:20:58.675Z,23.78
2022-08-05T02:22:05.525Z,23.74
2022-08-05T02:23:12.231Z,23.82
2022-08-05T02:24:23.119Z,23.77
2022-08-05T02:25:33.257Z,23.80
2022-08-05T02:26:53.810Z,23.65
2022-08-05T02:28:00.340Z,23.51
2022-08-05T02:29:04.035Z,23.61
2022-08-05T02:30:10.488Z,23.61
2022-08-05T02:31:21.260Z,23.63
2022-08-05T02:32:30.861Z,23.59
2022-08-05T02:33:38.354Z,23.71
2022-08-05T02:34:42.257Z,23.67
2022-08-05T02:35:49.967Z,23.58
2022-08-05T02:37:05.848Z,23.57
2022-08-05T02:38:10.059Z,23.60
2022-08-05T02:39:21.577Z,23.71
2022-08-05T02:40:26.113Z,23.73
2022-08-05T02:41:43.415Z,23.69
2022-08-05T02:42:55.900Z,23.72
2022-08-05T02:44:06.771Z,23.66
2022-08-05T02:45:16.513Z,23.77
2022-08-05T02:46:20.559Z,23.65
2022-08-05T02:47:36.516Z,23.59
2022-08-05T02:48:55.571Z,23.67
2022-08-05T02:49:58.224Z,23.62
2022-08-05T02:51:04.363Z,23.69
2022-08-05T02:52:30.148Z,23.58
2022-08-05T02:53:35.909Z,23.52
2022-08-05T02:54:42.807Z,23.60
2022-08-05T02:56:00.252Z,23.57
2022-08-05T02:57:10.090Z,23.45
2022-08-05T02:58:31.185Z,23.40
2022-08-05T02:59:50.209Z,23.46
2022-08-05T03:00:56.773Z,23.44
2022-08-05T03:02:00.943Z,23.56
2022-08-05T03:03:07.572Z,23.53
2022-08-05T03:04:15.735Z,23.64
2022-08-05T03:05:21.793Z,23.60
2022-08-05T03:06:54.597Z,23.59
2022-08-05T03:08:08.618Z,23.66
2022-08-05T03:09:15.748Z,23.75
2022-08-05T03:10:24.363Z,23.75
2022-08-05T03:11:55.164Z,23.74
2022-08-05T03:12:51.965Z,23.81
2022-08-05T03:14:04.066Z,23.85
2022-08-05T03:15:09.384Z,23.86
2022-08-05T03:16:11.531Z,23.96
2022-08-05T03:17:17.924Z,23.97
2022-08-05T03:18:29.859Z,24.06
2022-08-05T03:19:34.566Z,24.04
2022-08-05T03:20:39.041Z,23.99
2022-08-05T03:21:50.715Z,24.07
2022-08-05T03:22:57.226Z,24.02
2022-08-05T03:24:00.857Z,23.88
2022-08-05T03:25:32.859Z,23.86
2022-08-05T03:26:31.407Z,23.75
2022-08-05T03:27:57.933Z,23.82
2022-08-05T03:28:56.921Z,23.86
2022-08-05T03:30:08.531Z,23.90
2022-08-05T03:31:11.252Z,23.99
2022-08-05T03:32:33.409Z,23.99
2022-08-05T03:33:51.214Z,24.00
2022-08-05T03:34:55.324Z,23.90
2022-08-05T03:35:58.697Z,23.96
2022-08-05T03:37:01.687Z,24.02
2022-08-05T03:38:04.374Z,24.02
2022-08-05T03:39:13.032Z,23.99
2022-08-05T03:40:31.200Z,24.00
2022-08-05T03:41:45.222Z,24.05
2022-08-05T03:42:51.731Z,24.05
2022-08-05T03:44:08.269Z,24.08
2022-08-05T03:45:22.585Z,24.12
2022-08-05T03:46:29.493Z,24.00
2022-08-05T03:47:35.239Z,24.03
2022-08-05T03:48:38.006Z,24.03
2022-08-05T03:49:51.484Z,24.17
2022-08-05T03:52:36.505Z,24.27
2022-08-05T03:55:34.638Z,24.16
2022-08-05T03:55:49.808Z,24.24
2022-08-05T03:56:04.593Z,24.20
2022-08-05T03:57:00.169Z,24.21
2022-08-05T03:58:04.284Z,24.16
2022-08-05T03:59:13.699Z,24.20
2022-08-05T04:00:26.796Z,24.18
2022-08-05T04:01:32.331Z,24.23
2022-08-05T04:02:45.258Z,24.34
2022-08-05T04:04:10.704Z,24.32
2022-08-05T04:05:13.659Z,24.49
2022-08-05T04:06:18.170Z,24.55
2022-08-05T04:07:24.886Z,24.61
2022-08-05T04:08:36.069Z,24.54
2022-08-05T04:09:39.065Z,24.54
2022-08-05T04:10:57.867Z,24.59
2022-08-05T04:12:00.219Z,24.79
2022-08-05T04:13:04.322Z,24.70
2022-08-05T04:14:07.716Z,24.74
2022-08-05T04:15:15.545Z,24.90
2022-08-05T04:16:24.912Z,24.90
2022-08-05T04:17:55.489Z,24.99
2022-08-05T04:18:53.895Z,25.11
2022-08-05T04:19:57.232Z,25.22
2022-08-05T04:21:01.443Z,25.30
2022-08-05T04:22:12.217Z,25.20
2022-08-05T04:23:16.006Z,25.33
2022-08-05T04:24:19.407Z,25.38
2022-08-05T04:25:57.714Z,25.27
2022-08-05T04:26:49.811Z,25.49
2022-08-05T04:27:57.596Z,25.54
2022-08-05T04:29:01.176Z,25.54
2022-08-05T04:30:10.233Z,25.58
2022-08-05T04:31:12.414Z,25.60
2022-08-05T04:32:23.352Z,25.42
2022-08-05T04:34:19.341Z,25.56
2022-08-05T04:34:57.498Z,25.58
2022-08-05T04:36:15.829Z,25.58
2022-08-05T04:37:22.890Z,25.72
2022-08-05T04:38:44.312Z,25.70
2022-08-05T04:39:53.162Z,25.69
2022-08-05T04:40:58.018Z,25.64
2022-08-05T04:42:01.824Z,25.65
2022-08-05T04:43:06.212Z,25.73
2022-08-05T04:44:13.574Z,25.55
2022-08-05T04:45:22.913Z,25.59
2022-08-05T04:46:33.424Z,25.52
2022-08-05T04:47:38.626Z,25.47
2022-08-05T04:48:44.968Z,25.45
2022-08-05T04:50:02.582Z,25.60
2022-08-05T04:51:12.631Z,25.38
2022-08-05T04:52:16.456Z,25.31
2022-08-05T04:53:19.213Z,25.49
2022-08-05T04:54:23.139Z,25.52
2022-08-05T04:56:14.515Z,25.52
2022-08-05T04:56:48.605Z,25.54
2022-08-05T04:57:51.551Z,25.67
2022-08-05T04:58:56.733Z,25.62
2022-08-05T04:59:58.953Z,25.67
2022-08-05T05:01:01.222Z,25.59
2022-08-05T05:02:07.155Z,25.52
2022-08-05T05:03:12.050Z,25.56
2022-08-05T05:04:20.947Z,25.54
2022-08-05T05:05:28.891Z,25.68
2022-08-05T05:06:40.671Z,25.68
2022-08-05T05:07:52.995Z,25.84
2022-08-05T05:09:01.245Z,25.81
2022-08-05T05:10:07.912Z,25.86
2022-08-05T05:11:10.780Z,25.96
2022-08-05T05:12:17.248Z,26.08
2022-08-05T05:13:19.276Z,26.10
2022-08-05T05:14:28.047Z,25.94
2022-08-05T05:15:59.096Z,26.24
2022-08-05T05:16:56.482Z,26.43
2022-08-05T05:18:00.111Z,26.38
2022-08-05T05:19:18.068Z,26.14
2022-08-05T05:20:21.750Z,26.57
2022-08-05T05:21:30.268Z,26.49
2022-08-05T05:22:36.130Z,26.39
2022-08-05T05:24:03.686Z,26.60
2022-08-05T05:25:16.935Z,26.70
2022-08-05T05:26:19.899Z,26.86
2022-08-05T05:27:45.377Z,27.06
2022-08-05T05:28:48.326Z,26.98
2022-08-05T05:30:04.453Z,26.98
2022-08-05T05:31:08.806Z,26.99
2022-08-05T05:32:12.730Z,27.10
2022-08-05T05:33:23.311Z,26.97
2022-08-05T05:34:26.945Z,27.34
2022-08-05T05:35:34.225Z,27.41
2022-08-05T05:36:39.986Z,27.44
2022-08-05T05:38:00.198Z,27.57
2022-08-05T05:39:04.649Z,27.74
2022-08-05T05:40:15.260Z,27.89
2022-08-05T05:41:17.296Z,28.02
2022-08-05T05:42:20.867Z,28.25
2022-08-05T05:43:57.598Z,28.30
2022-08-05T05:44:52.984Z,28.24
2022-08-05T05:46:16.105Z,28.46
2022-08-05T05:47:30.581Z,28.31
2022-08-05T05:48:44.520Z,28.47
2022-08-05T05:49:47.568Z,28.52
2022-08-05T05:50:58.769Z,28.75
2022-08-05T05:52:28.612Z,28.85
2022-08-05T05:53:54.037Z,28.78
2022-08-05T05:55:01.364Z,29.16
2022-08-05T05:56:04.379Z,28.75
2022-08-05T05:57:13.570Z,28.68
2022-08-05T05:58:31.428Z,28.62
2022-08-05T06:01:02.115Z,29.02
2022-08-05T06:02:32.588Z,29.17
2022-08-05T06:04:00.376Z,28.86
2022-08-05T06:05:03.473Z,28.95
2022-08-05T06:06:12.434Z,28.84
2022-08-05T06:07:17.810Z,29.04
2022-08-05T06:08:32.321Z,29.31
2022-08-05T06:09:50.157Z,29.91
2022-08-05T06:10:57.463Z,30.00
2022-08-05T06:12:02.471Z,29.98
2022-08-05T06:13:05.952Z,30.04
2022-08-05T06:14:08.405Z,30.15
2022-08-05T06:15:23.524Z,30.20
2022-08-05T06:16:32.722Z,30.40
2022-08-05T06:17:53.382Z,30.52
2022-08-05T06:18:56.341Z,30.38
2022-08-05T06:20:03.063Z,30.22
2022-08-05T06:21:08.024Z,30.24
2022-08-05T06:22:30.507Z,29.82
2022-08-05T06:23:43.966Z,30.19
2022-08-05T06:24:48.437Z,30.30
2022-08-05T06:26:12.746Z,30.24
2022-08-05T06:27:17.368Z,30.29
2022-08-05T06:28:37.062Z,30.17
2022-08-05T06:29:46.890Z,30.58
2022-08-05T06:30:54.360Z,31.64
2022-08-05T06:31:57.410Z,32.41
2022-08-05T06:33:02.345Z,33.04
2022-08-05T06:34:09.005Z,33.07
2022-08-05T06:35:15.442Z,33.23
2022-08-05T06:36:37.395Z,33.39
2022-08-05T06:37:58.999Z,33.89
2022-08-05T06:39:04.144Z,34.18
2022-08-05T06:40:09.044Z,34.83
2022-08-05T06:41:11.726Z,35.05
2022-08-05T06:42:16.520Z,34.64
2022-08-05T06:43:57.634Z,35.51
2022-08-05T06:44:42.817Z,36.24
2022-08-05T06:46:03.881Z,36.78
2022-08-05T06:47:30.247Z,37.78
2022-08-05T06:48:53.583Z,38.20
2022-08-05T06:50:01.113Z,38.45
2022-08-05T06:51:09.545Z,38.24
2022-08-05T06:52:36.965Z,38.76
2022-08-05T06:53:39.127Z,38.83
2022-08-05T06:54:41.593Z,39.14
2022-08-05T06:55:43.752Z,38.47
2022-08-05T06:56:54.460Z,39.16
2022-08-05T06:58:20.342Z,39.23
2022-08-05T06:59:19.365Z,39.15
2022-08-05T07:00:24.806Z,39.35
2022-08-05T07:01:27.685Z,39.23
2022-08-05T07:02:42.247Z,40.04
2022-08-05T07:03:44.365Z,39.86
2022-08-05T07:04:46.484Z,40.13
2022-08-05T07:05:48.571Z,40.22
2022-08-05T07:06:51.850Z,40.10
2022-08-05T07:07:53.984Z,39.81
2022-08-05T07:08:56.401Z,40.75
2022-08-05T07:10:03.548Z,39.39
2022-08-05T07:11:06.424Z,40.14
2022-08-05T07:12:36.279Z,39.91
2022-08-05T07:13:59.844Z,39.47
2022-08-05T07:15:34.790Z,40.08
2022-08-05T07:17:57.033Z,39.93
2022-08-05T07:18:14.696Z,39.62
2022-08-05T07:20:10.508Z,38.88
2022-08-05T07:20:44.703Z,38.48
2022-08-05T07:22:00.058Z,37.89
2022-08-05T07:23:04.506Z,37.91
2022-08-05T07:24:11.320Z,38.17
2022-08-05T07:25:24.116Z,38.64
2022-08-05T07:26:36.144Z,38.51
2022-08-05T07:27:57.771Z,39.11
2022-08-05T07:29:00.394Z,38.95
2022-08-05T07:30:24.083Z,39.40
2022-08-05T07:31:40.855Z,38.71
2022-08-05T07:32:53.316Z,38.24
2022-08-05T07:33:55.753Z,38.76
2022-08-05T07:36:04.715Z,38.81
2022-08-05T07:36:24.581Z,38.92
2022-08-05T07:37:37.483Z,39.25
2022-08-05T07:38:43.475Z,38.68
2022-08-05T07:40:04.063Z,38.63
2022-08-05T07:41:35.092Z,39.14
2022-08-05T07:42:33.901Z,39.04
2022-08-05T07:43:36.434Z,39.32
2022-08-05T07:44:39.200Z,39.58
2022-08-05T07:45:56.682Z,37.87
2022-08-05T07:47:00.720Z,39.03
2022-08-05T07:48:14.675Z,38.85
2022-08-05T07:49:43.393Z,39.42
2022-08-05T07:50:56.474Z,39.13
2022-08-05T07:52:01.938Z,39.38
2022-08-05T07:53:04.565Z,38.99
2022-08-05T07:54:08.546Z,39.40
2022-08-05T07:55:44.448Z,38.76
2022-08-05T07:56:59.883Z,39.05
2022-08-05T07:58:03.163Z,38.44
2022-08-05T07:59:08.552Z,38.62
2022-08-05T08:00:14.482Z,38.70
2022-08-05T08:01:16.991Z,38.45
2022-08-05T08:02:31.214Z,38.47
2022-08-05T08:03:48.875Z,39.17
2022-08-05T08:04:53.965Z,38.91
2022-08-05T08:05:56.063Z,38.78
2022-08-05T08:07:01.052Z,38.36
2022-08-05T08:08:07.653Z,38.50
2022-08-05T08:09:14.632Z,39.02
2022-08-05T08:10:20.560Z,38.96
2022-08-05T08:11:27.397Z,38.89
2022-08-05T08:12:48.674Z,39.38
2022-08-05T08:14:00.898Z,39.53
2022-08-05T08:15:04.756Z,39.67
2022-08-05T08:16:35.317Z,39.71
2022-08-05T08:17:35.265Z,39.78
2022-08-05T08:18:37.601Z,40.53
2022-08-05T08:20:42.795Z,39.31
2022-08-05T08:21:09.715Z,39.28
2022-08-05T08:22:27.062Z,37.88
2022-08-05T08:24:01.104Z,37.49
2022-08-05T08:24:52.154Z,37.24
2022-08-05T08:26:00.809Z,37.58
2022-08-05T08:27:07.084Z,38.64
2022-08-05T08:28:18.921Z,38.54
2022-08-05T08:30:06.529Z,38.44
2022-08-05T08:31:01.617Z,38.22
2022-08-05T08:32:04.161Z,39.13
2022-08-05T08:33:13.638Z,37.35
2022-08-05T08:34:30.532Z,37.14
2022-08-05T08:35:41.436Z,37.44
2022-08-05T08:37:03.140Z,37.67
2022-08-05T08:38:07.075Z,37.48
2022-08-05T08:39:15.647Z,37.51
2022-08-05T08:40:18.662Z,37.54
2022-08-05T08:41:26.185Z,37.78
2022-08-05T08:42:52.390Z,37.30
2022-08-05T08:45:18.347Z,37.37
2022-08-05T08:45:26.649Z,37.71
2022-08-05T08:46:32.253Z,37.84
2022-08-05T08:48:06.878Z,37.27
2022-08-05T08:49:17.389Z,38.14
2022-08-05T08:50:31.671Z,36.69
2022-08-05T08:52:03.773Z,36.85
2022-08-05T08:53:12.339Z,36.71
2022-08-05T08:54:15.468Z,36.83
2022-08-05T08:55:19.610Z,36.22
2022-08-05T08:56:37.378Z,36.24
2022-08-05T08:57:58.120Z,36.13
2022-08-05T08:59:01.356Z,36.00
2022-08-05T09:00:12.431Z,36.45
2022-08-05T09:01:19.718Z,36.59
2022-08-05T09:02:24.154Z,36.22
2022-08-05T09:03:45.053Z,35.59
2022-08-05T09:05:15.911Z,36.54
2022-08-05T09:06:11.547Z,36.83
2022-08-05T09:07:19.636Z,36.60
2022-08-05T09:08:31.695Z,36.44
2022-08-05T09:09:36.020Z,35.98
2022-08-05T09:10:46.879Z,34.76
2022-08-05T09:11:51.025Z,34.64
2022-08-05T09:12:57.253Z,34.94
2022-08-05T09:14:54.495Z,34.91
2022-08-05T09:15:30.422Z,34.57
2022-08-05T09:16:33.223Z,34.83
2022-08-05T09:17:42.312Z,34.43
2022-08-05T09:18:48.895Z,33.78
2022-08-05T09:20:01.656Z,33.24
2022-08-05T09:21:11.739Z,32.58
2022-08-05T09:22:31.987Z,32.51
2022-08-05T09:23:37.516Z,32.98
2022-08-05T09:25:01.423Z,32.86
2022-08-05T09:26:20.607Z,33.00
2022-08-05T09:28:04.126Z,33.12
2022-08-05T09:28:59.497Z,32.72
2022-08-05T09:30:06.332Z,32.86
2022-08-05T09:31:44.111Z,32.73
2022-08-05T09:32:51.273Z,32.29
2022-08-05T09:34:10.432Z,32.25
2022-08-05T09:35:26.545Z,32.28
2022-08-05T09:36:54.783Z,32.29
2022-08-05T09:38:12.035Z,32.21
2022-08-05T09:39:22.212Z,32.71
2022-08-05T09:40:41.211Z,32.57
2022-08-05T09:42:04.239Z,32.67
2022-08-05T09:43:08.570Z,32.16
2022-08-05T09:44:11.187Z,32.63
2022-08-05T09:46:04.729Z,32.68
2022-08-05T09:46:35.565Z,32.82
2022-08-05T09:47:54.980Z,32.42
2022-08-05T09:49:08.138Z,32.39
2022-08-05T09:50:38.711Z,32.65
2022-08-05T09:51:43.663Z,32.71
2022-08-05T09:53:05.461Z,32.33
2022-08-05T09:54:11.597Z,32.52
2022-08-05T09:55:57.128Z,32.55
2022-08-05T09:56:39.605Z,32.36
2022-08-05T09:57:43.308Z,32.10
2022-08-05T09:59:04.231Z,32.02
2022-08-05T10:00:19.115Z,31.92
2022-08-05T10:01:32.047Z,31.86
2022-08-05T10:02:43.151Z,31.56
2022-08-05T10:03:59.538Z,31.33
2022-08-05T10:05:13.854Z,31.14
2022-08-05T10:06:20.732Z,31.18
2022-08-05T10:08:36.586Z,30.97
2022-08-05T10:08:50.355Z,31.02
2022-08-05T10:10:15.324Z,31.11
2022-08-05T10:11:18.318Z,31.13
2022-08-05T10:12:30.547Z,31.14
2022-08-05T10:13:47.247Z,31.17
2022-08-05T10:14:50.901Z,31.24
2022-08-05T10:16:00.586Z,31.07
2022-08-05T10:17:36.971Z,31.44
2022-08-05T10:18:38.955Z,31.56
2022-08-05T10:20:03.677Z,31.56
2022-08-05T10:21:11.904Z,31.70
2022-08-05T10:22:30.355Z,31.80
2022-08-05T10:23:55.782Z,31.32
2022-08-05T10:25:01.495Z,31.75
2022-08-05T10:26:14.390Z,31.93
2022-08-05T10:27:18.289Z,31.72
2022-08-05T10:28:30.574Z,31.92
2022-08-05T10:30:07.071Z,32.09
2022-08-05T10:32:52.970Z,32.14
2022-08-05T10:33:01.293Z,32.45
2022-08-05T10:33:54.018Z,31.98
2022-08-05T10:35:00.942Z,31.94
2022-08-05T10:36:04.698Z,31.47
2022-08-05T10:37:07.258Z,31.46
2022-08-05T10:38:11.935Z,31.38
2022-08-05T10:39:24.958Z,31.91
2022-08-05T10:40:52.316Z,31.88
2022-08-05T10:42:11.322Z,31.79
2022-08-05T10:43:23.301Z,31.71
2022-08-05T10:44:34.116Z,31.76
2022-08-05T10:45:40.250Z,31.70
2022-08-05T10:46:56.533Z,31.81
2022-08-05T10:48:31.610Z,31.80
2022-08-05T10:49:26.966Z,31.84
2022-08-05T10:51:22.022Z,31.94
2022-08-05T10:52:46.916Z,31.98
2022-08-05T10:53:51.755Z,32.11
2022-08-05T10:55:15.926Z,32.04
2022-08-05T10:56:30.261Z,32.06
2022-08-05T10:57:39.561Z,32.19
2022-08-05T10:58:54.038Z,32.06
2022-08-05T11:00:19.741Z,32.17
2022-08-05T11:01:55.144Z,31.88
2022-08-05T11:03:24.924Z,31.67
2022-08-05T11:04:30.708Z,31.38
2022-08-05T11:05:35.027Z,31.45
2022-08-05T11:07:06.667Z,31.26
2022-08-05T11:08:34.283Z,31.51
2022-08-05T11:09:46.206Z,31.68
2022-08-05T11:10:50.340Z,31.76
2022-08-05T11:12:04.213Z,31.68
2022-08-05T11:13:09.294Z,31.47
2022-08-05T11:14:12.930Z,31.52
2022-08-05T11:15:21.387Z,31.61
2022-08-05T11:16:33.797Z,31.61
2022-08-05T11:17:59.261Z,31.66
2022-08-05T11:20:11.500Z,31.52
2022-08-05T11:20:51.608Z,31.58
2022-08-05T11:21:55.407Z,31.48
2022-08-05T11:23:05.828Z,31.40
2022-08-05T11:24:29.949Z,31.54
2022-08-05T11:26:05.102Z,31.37
2022-08-05T11:27:37.031Z,31.57
2022-08-05T11:28:54.787Z,31.57
2022-08-05T11:30:00.416Z,31.68
2022-08-05T11:31:02.493Z,31.51
2022-08-05T11:32:29.465Z,31.53
2022-08-05T11:33:51.842Z,31.65
2022-08-05T11:34:56.262Z,31.76
2022-08-05T11:36:08.455Z,31.81
2022-08-05T11:38:30.351Z,31.91
2022-08-05T11:38:46.086Z,31.92
2022-08-05T11:40:00.580Z,31.96
2022-08-05T11:41:54.811Z,32.14
2022-08-05T11:42:42.279Z,32.10
2022-08-05T11:44:05.002Z,31.95
2022-08-05T11:45:23.093Z,32.11
2022-08-05T11:46:58.311Z,32.10
2022-08-05T11:48:12.346Z,31.74
2022-08-05T11:49:19.494Z,31.94
2022-08-05T11:50:21.690Z,31.95
2022-08-05T11:51:44.586Z,32.15
2022-08-05T11:52:53.094Z,32.01
2022-08-05T11:53:57.234Z,32.00
2022-08-05T11:55:07.353Z,32.24
2022-08-05T11:56:11.395Z,32.12
2022-08-05T11:57:25.015Z,32.12
2022-08-05T11:58:41.390Z,31.76
2022-08-05T11:59:55.544Z,31.48
2022-08-05T12:01:12.236Z,31.70
2022-08-05T12:02:32.360Z,31.79
2022-08-05T12:04:04.666Z,31.68
2022-08-05T12:05:18.355Z,31.67
2022-08-05T12:06:23.860Z,31.53
2022-08-05T12:08:03.664Z,31.69
2022-08-05T12:08:53.062Z,31.65
2022-08-05T12:10:00.887Z,31.62
2022-08-05T12:11:09.048Z,31.71
2022-08-05T12:12:11.177Z,31.57
2022-08-05T12:13:27.713Z,31.64
2022-08-05T12:14:43.273Z,31.83
2022-08-05T12:15:50.337Z,31.89
2022-08-05T12:16:54.483Z,32.04
2022-08-05T12:18:03.878Z,32.00
2022-08-05T12:20:17.142Z,32.06
2022-08-05T12:20:39.541Z,32.03
2022-08-05T12:21:49.345Z,31.71
2022-08-05T12:22:52.052Z,31.84
2022-08-05T12:24:11.019Z,31.88
2022-08-05T12:25:14.256Z,31.94
2022-08-05T12:26:18.647Z,31.83
2022-08-05T12:27:25.695Z,31.50
2022-08-05T12:28:38.390Z,31.42
2022-08-05T12:29:40.613Z,31.46
2022-08-05T12:30:46.186Z,31.51
2022-08-05T12:31:55.106Z,31.40
2022-08-05T12:33:07.434Z,31.52
2022-08-05T12:34:26.922Z,31.46
2022-08-05T12:35:37.223Z,31.52
2022-08-05T12:36:43.353Z,31.46
2022-08-05T12:37:49.626Z,31.53
2022-08-05T12:38:57.570Z,31.52
2022-08-05T12:40:03.476Z,31.50
2022-08-05T12:41:14.850Z,31.56
2022-08-05T12:42:20.807Z,31.69
2022-08-05T12:43:23.548Z,31.52
2022-08-05T12:44:33.400Z,31.57
2022-08-05T12:45:49.832Z,31.66
2022-08-05T12:46:54.072Z,31.42
2022-08-05T12:48:17.028Z,31.40
2022-08-05T12:49:19.060Z,31.45
2022-08-05T12:50:21.441Z,31.46
2022-08-05T12:52:13.745Z,31.42
2022-08-05T12:53:01.433Z,31.35
2022-08-05T12:54:04.913Z,31.42
2022-08-05T12:55:25.574Z,31.50
2022-08-05T12:56:35.269Z,31.52
2022-08-05T12:58:51.350Z,31.62
2022-08-05T12:59:20.749Z,31.73
2022-08-05T13:02:02.435Z,31.70
2022-08-05T13:02:09.818Z,31.70
2022-08-05T13:03:13.665Z,31.72
2022-08-05T13:04:21.015Z,31.76
2022-08-05T13:05:24.960Z,31.77
2022-08-05T13:06:51.468Z,31.81
2022-08-05T13:07:59.948Z,31.81
2022-08-05T13:09:12.549Z,31.78
2022-08-05T13:10:20.142Z,31.86
2022-08-05T13:11:25.436Z,31.93
2022-08-05T13:12:51.307Z,31.99
2022-08-05T13:14:04.667Z,31.82
2022-08-05T13:15:16.436Z,31.77
2022-08-05T13:16:27.928Z,31.83
2022-08-05T13:17:41.774Z,31.85
2022-08-05T13:18:58.649Z,31.91
2022-08-05T13:20:06.141Z,31.79
2022-08-05T13:21:10.898Z,31.77
2022-08-05T13:22:14.547Z,31.74
2022-08-05T13:23:30.521Z,31.63
2022-08-05T13:24:51.027Z,31.47
2022-08-05T13:25:59.488Z,31.44
2022-08-05T13:27:03.828Z,31.38
2022-08-05T13:28:07.466Z,31.46
2022-08-05T13:29:19.075Z,31.38
2022-08-05T13:30:39.064Z,31.47
2022-08-05T13:32:03.766Z,31.27
2022-08-05T13:33:04.870Z,31.25
2022-08-05T13:34:22.502Z,31.04
2022-08-05T13:35:43.118Z,31.11
2022-08-05T13:36:49.912Z,30.87
2022-08-05T13:37:55.785Z,30.77
2022-08-05T13:38:58.114Z,30.75
2022-08-05T13:40:13.963Z,30.74
2022-08-05T13:41:19.054Z,30.72
2022-08-05T13:42:25.617Z,30.75
2022-08-05T13:43:43.608Z,30.83
2022-08-05T13:44:50.910Z,30.77
2022-08-05T13:45:54.087Z,30.69
2022-08-05T13:47:02.392Z,30.73
2022-08-05T13:48:57.438Z,30.79
2022-08-05T13:49:35.561Z,30.77
2022-08-05T13:50:37.767Z,30.86
2022-08-05T13:51:46.526Z,30.92
2022-08-05T13:52:49.987Z,30.91
2022-08-05T13:53:52.440Z,30.83
2022-08-05T13:55:01.031Z,30.77
2022-08-05T13:56:04.316Z,30.67
2022-08-05T13:57:21.524Z,30.72
2022-08-05T13:58:30.832Z,30.80
2022-08-05T13:59:33.335Z,30.82
2022-08-05T14:00:37.868Z,30.73
2022-08-05T14:01:46.575Z,30.71
2022-08-05T14:03:01.629Z,30.71
2022-08-05T14:04:26.519Z,30.68
2022-08-05T14:06:19.197Z,30.70
2022-08-05T14:06:58.688Z,30.78
2022-08-05T14:08:20.136Z,30.80
2022-08-05T14:09:22.856Z,30.75
2022-08-05T14:10:32.203Z,30.65
2022-08-05T14:11:34.589Z,30.62
2022-08-05T14:12:57.468Z,30.66
2022-08-05T14:13:59.832Z,30.69
2022-08-05T14:15:05.953Z,30.72
2022-08-05T14:16:24.331Z,30.63
2022-08-05T14:17:28.313Z,30.66
2022-08-05T14:18:30.917Z,30.69
2022-08-05T14:19:34.169Z,30.68
2022-08-05T14:20:56.507Z,30.54
2022-08-05T14:22:10.472Z,30.58
2022-08-05T14:23:18.988Z,30.59
2022-08-05T14:24:27.767Z,30.56
2022-08-05T14:25:32.780Z,30.59
2022-08-05T14:26:43.774Z,30.57
2022-08-05T14:27:58.796Z,30.63
2022-08-05T14:29:00.975Z,30.59
2022-08-05T14:30:05.121Z,30.69
2022-08-05T14:31:54.323Z,30.74
2022-08-05T14:32:45.645Z,30.76
2022-08-05T14:33:59.337Z,30.76
2022-08-05T14:35:03.558Z,30.77
2022-08-05T14:36:05.823Z,30.78
2022-08-05T14:37:13.280Z,30.79
2022-08-05T14:38:27.908Z,30.82
2022-08-05T14:39:49.975Z,30.86
2022-08-05T14:40:57.816Z,30.85
2022-08-05T14:42:19.264Z,30.84
2022-08-05T14:44:02.023Z,30.70
2022-08-05T14:44:46.157Z,30.69
2022-08-05T14:45:48.491Z,30.68
2022-08-05T14:46:50.607Z,30.69
2022-08-05T14:48:02.797Z,30.66
2022-08-05T14:49:08.173Z,30.68
2022-08-05T14:50:17.567Z,30.72
2022-08-05T14:51:21.626Z,30.73
2022-08-05T14:52:50.150Z,30.74
2022-08-05T14:54:26.565Z,30.73
2022-08-05T14:55:15.457Z,30.77
2022-08-05T14:56:22.629Z,30.88
2022-08-05T14:57:25.007Z,30.86
2022-08-05T14:58:47.490Z,30.84
2022-08-05T14:59:57.217Z,30.87
2022-08-05T15:01:03.442Z,30.87
2022-08-05T15:02:15.707Z,30.76
2022-08-05T15:03:18.419Z,30.84
2022-08-05T15:04:22.530Z,30.78
2022-08-05T15:05:29.935Z,30.80
2022-08-05T15:06:52.963Z,30.75
2022-08-05T15:08:08.913Z,30.79
2022-08-05T15:09:51.968Z,30.79
2022-08-05T15:10:46.097Z,30.75
2022-08-05T15:11:52.675Z,30.70
2022-08-05T15:13:01.164Z,30.65
2022-08-05T15:14:06.566Z,30.65
2022-08-05T15:15:15.210Z,30.72
2022-08-05T15:16:17.761Z,30.71
2022-08-05T15:17:45.961Z,30.67
2022-08-05T15:18:43.023Z,30.63
2022-08-05T15:19:49.383Z,30.67
2022-08-05T15:20:57.630Z,30.65
2022-08-05T15:22:09.995Z,30.53